Terminal Aerodrome Forecast
Issued by NWS

Home | Current Version | Previous Version | Text Only | Print | Product List | Glossary On
Versions: 1 2 3 4 5 6 7 8 9 10 11 12 13 14 15 16 17 18 19
000
FTUS44 KSJT 250530
TAFSOA
TAF
KSOA 250530Z 2506/2606 17012KT P6SM OVC015
     FM251800 19012KT P6SM OVC100 PROB30 2600/2604 P6SM TSRA
      BKN050CB
     FM260400 VRB05KT P6SM OVC050
      TEMPO 2604/2606 6SM -TSRA BKN050CB=

USA.gov is the U.S. government's official web portal to all federal, state and local government web resources and services.